Time;durP1;ratioP1;P1;durP2;ratioP2;P2;SDS_P1;SDS_P2;PMS_P1;PMS_P2;Temp;Humidity;BMP_temperature;BMP_pressure;BME280_temperature;BME280_humidity;BME280_pressure;Samples;Min_cycle;Max_cycle;Signal;HPM_P1;HPM_P2
2022/02/11 00:00:40;;;;;;;13.30;2.50;;;6.00;99.90;;;;;;5072818;28;20041;-86
2022/02/11 00:08:16;;;;;;;11.20;2.70;;;6.00;99.90;;;;;;5043879;28;20075;-86
2022/02/11 00:10:42;;;;;;;6.75;2.10;;;6.00;99.90;;;;;;5037926;28;20333;-85
2022/02/11 00:13:07;;;;;;;11.73;2.80;;;6.00;99.90;;;;;;5072399;28;20075;-85
2022/02/11 00:18:01;;;;;;;9.05;2.70;;;5.90;99.90;;;;;;5072644;28;20126;-85
2022/02/11 00:20:27;;;;;;;8.80;2.30;;;5.90;99.90;;;;;;5038063;28;20033;-86
2022/02/11 00:22:53;;;;;;;8.43;2.33;;;5.90;99.90;;;;;;5038453;28;20029;-85
2022/02/11 00:25:20;;;;;;;10.43;2.22;;;5.90;99.90;;;;;;5054952;28;20024;-85
2022/02/11 00:35:55;;;;;;;10.10;2.00;;;5.80;99.90;;;;;;5072542;28;20546;-85
2022/02/11 00:38:31;;;;;;;8.35;2.08;;;5.80;99.90;;;;;;5040557;28;20033;-86
2022/02/11 01:02:54;;;;;;;9.57;1.73;;;5.60;99.90;;;;;;5060596;28;20047;-86
2022/02/11 01:05:20;;;;;;;8.77;2.10;;;5.60;99.90;;;;;;5043483;28;20025;-85
2022/02/11 01:07:46;;;;;;;9.90;2.10;;;5.60;99.90;;;;;;5057657;28;20031;-86
2022/02/11 01:10:11;;;;;;;9.35;1.65;;;5.60;99.90;;;;;;5041205;28;20036;-86
2022/02/11 01:12:40;;;;;;;7.70;1.80;;;5.60;99.90;;;;;;5057679;28;20024;-85
2022/02/11 01:15:06;;;;;;;8.02;2.50;;;5.60;99.90;;;;;;5057815;28;20028;-86
2022/02/11 01:17:40;;;;;;;14.43;2.13;;;5.50;99.90;;;;;;5041044;28;20029;-86
2022/02/11 01:20:13;;;;;;;10.32;1.55;;;5.50;99.90;;;;;;5042195;28;20493;-86
2022/02/11 01:22:54;;;;;;;13.65;2.28;;;5.50;99.90;;;;;;5043207;28;20032;-85
2022/02/11 01:25:34;;;;;;;11.20;1.95;;;5.50;99.90;;;;;;5045440;28;20115;-86
2022/02/11 01:30:50;;;;;;;13.20;2.95;;;5.50;99.90;;;;;;5075115;28;20380;-85
2022/02/11 01:36:11;;;;;;;11.27;1.95;;;5.50;99.90;;;;;;5075228;28;20033;-85
2022/02/11 01:44:35;;;;;;;9.70;2.03;;;5.40;99.90;;;;;;5074647;28;20044;-86
2022/02/11 01:49:40;;;;;;;8.18;1.98;;;5.40;99.90;;;;;;5057464;28;20051;-85
2022/02/11 02:00:23;;;;;;;11.63;2.00;;;5.50;99.90;;;;;;5074122;28;20058;-85
2022/02/11 02:03:43;;;;;;;10.27;2.47;;;5.50;99.90;;;;;;5074031;28;20043;-85
2022/02/11 02:06:01;;;;;;;10.80;1.90;;;5.50;99.90;;;;;;5048788;28;20039;-86
2022/02/11 02:13:55;;;;;;;14.45;2.45;;;5.40;99.90;;;;;;5056475;28;19909;-85
2022/02/11 02:50:11;;;;;;;16.90;3.97;;;5.40;99.90;;;;;;5073715;28;20043;-85
2022/02/11 02:57:35;;;;;;;11.90;2.50;;;5.40;99.90;;;;;;5074029;28;20035;-85
2022/02/11 03:00:16;;;;;;;12.60;2.30;;;5.40;99.90;;;;;;5055239;28;20120;-86
2022/02/11 03:57:37;;;;;;;22.73;3.60;;;5.60;99.90;;;;;;5037762;28;20814;-86
2022/02/11 04:56:48;;;;;;;19.60;2.63;;;5.70;99.90;;;;;;5075631;28;20492;-86
2022/02/11 05:01:58;;;;;;;23.35;2.90;;;5.70;99.90;;;;;;5060546;28;20606;-86
2022/02/11 05:04:24;;;;;;;16.33;1.98;;;5.70;99.90;;;;;;5040743;28;20108;-85
2022/02/11 05:06:49;;;;;;;18.83;3.17;;;5.70;99.90;;;;;;5057621;28;20025;-85
2022/02/11 05:09:15;;;;;;;13.50;2.47;;;5.80;99.90;;;;;;5057349;28;20111;-85
2022/02/11 05:11:41;;;;;;;28.33;2.67;;;5.70;99.90;;;;;;5041140;28;20532;-85
2022/02/11 05:14:08;;;;;;;19.48;3.30;;;5.70;99.90;;;;;;5057212;28;20032;-86
2022/02/11 05:16:35;;;;;;;17.40;2.45;;;5.70;99.90;;;;;;5057902;28;20487;-85
2022/02/11 05:19:04;;;;;;;20.17;3.58;;;5.70;99.90;;;;;;5057371;28;20510;-86
2022/02/11 05:21:30;;;;;;;22.65;4.18;;;5.80;99.90;;;;;;5057252;28;20025;-86
2022/02/11 05:23:55;;;;;;;17.42;3.42;;;5.80;99.90;;;;;;5057348;28;20031;-86
2022/02/11 05:26:21;;;;;;;17.10;2.60;;;5.80;99.90;;;;;;5056175;28;20017;-86
2022/02/11 05:28:47;;;;;;;22.27;3.28;;;5.80;99.90;;;;;;5040927;28;20021;-86
2022/02/11 05:31:12;;;;;;;20.88;2.88;;;5.80;99.90;;;;;;5057086;28;20037;-87
2022/02/11 05:33:43;;;;;;;19.90;2.22;;;5.80;99.90;;;;;;5057647;28;20028;-85
2022/02/11 05:36:11;;;;;;;20.63;2.30;;;5.80;99.90;;;;;;5056365;28;20453;-86
2022/02/11 05:38:37;;;;;;;17.40;2.55;;;5.80;99.90;;;;;;5057299;28;20342;-86
2022/02/11 05:41:03;;;;;;;13.90;3.63;;;5.80;99.90;;;;;;5057286;28;20063;-87
2022/02/11 05:43:31;;;;;;;12.93;1.90;;;5.80;99.90;;;;;;5040702;28;20052;-87
2022/02/11 05:45:57;;;;;;;20.45;2.65;;;5.70;99.90;;;;;;5040243;28;20033;-86
2022/02/11 05:48:23;;;;;;;17.88;2.85;;;5.80;99.90;;;;;;5040570;28;20035;-86
2022/02/11 05:50:49;;;;;;;24.48;3.50;;;5.70;99.90;;;;;;5056794;28;20039;-86
2022/02/11 05:53:14;;;;;;;17.30;2.45;;;5.70;99.90;;;;;;5040327;28;20123;-86
2022/02/11 05:55:40;;;;;;;15.25;2.40;;;5.70;99.90;;;;;;5040620;28;20032;-86
2022/02/11 05:58:06;;;;;;;15.20;3.05;;;5.70;99.90;;;;;;5056932;28;20112;-86
2022/02/11 06:00:32;;;;;;;18.55;3.05;;;5.70;99.90;;;;;;5024129;28;20058;-86
2022/02/11 06:02:57;;;;;;;17.00;3.88;;;5.70;99.90;;;;;;5057104;28;20017;-85
2022/02/11 06:05:26;;;;;;;22.02;2.85;;;5.70;99.90;;;;;;5056809;28;20031;-87
2022/02/11 06:07:51;;;;;;;20.52;3.20;;;5.70;99.90;;;;;;5056819;28;20433;-86
2022/02/11 06:10:20;;;;;;;12.90;2.33;;;5.70;99.90;;;;;;5056673;28;20038;-86
2022/02/11 06:12:45;;;;;;;19.08;3.72;;;5.60;99.90;;;;;;5056390;28;20027;-85
2022/02/11 06:15:11;;;;;;;12.40;2.58;;;5.60;99.90;;;;;;5040065;28;20024;-83
2022/02/11 06:17:38;;;;;;;13.30;2.83;;;5.50;99.90;;;;;;5074952;28;20020;-85
2022/02/11 06:20:05;;;;;;;10.70;2.10;;;5.50;99.90;;;;;;5040229;28;20044;-86
2022/02/11 06:22:31;;;;;;;10.30;1.98;;;5.50;99.90;;;;;;5056707;28;20044;-86
2022/02/11 06:24:58;;;;;;;13.02;2.45;;;5.40;99.90;;;;;;5040295;28;20101;-86
2022/02/11 06:27:24;;;;;;;11.95;1.80;;;5.40;99.90;;;;;;5039947;28;20119;-85
2022/02/11 06:29:50;;;;;;;14.70;2.42;;;5.30;99.90;;;;;;5056769;28;20389;-86
2022/02/11 06:32:15;;;;;;;15.48;2.65;;;5.30;99.90;;;;;;5022382;28;20025;-86
2022/02/11 06:34:41;;;;;;;9.63;1.63;;;5.30;99.90;;;;;;5006521;28;20038;-86
2022/02/11 06:37:07;;;;;;;16.42;2.95;;;5.30;99.90;;;;;;5041404;28;20108;-86
2022/02/11 06:39:33;;;;;;;20.02;2.53;;;5.20;99.90;;;;;;5044916;28;20025;-85
2022/02/11 06:41:58;;;;;;;16.42;2.10;;;5.20;99.90;;;;;;5048699;28;20059;-87
2022/02/11 06:44:24;;;;;;;12.60;2.75;;;5.20;99.90;;;;;;5042486;28;20482;-87
2022/02/11 06:46:50;;;;;;;17.25;2.45;;;5.20;99.90;;;;;;5042507;28;20458;-86
2022/02/11 06:49:16;;;;;;;16.27;2.50;;;5.20;99.90;;;;;;5064292;28;20100;-85
2022/02/11 06:51:41;;;;;;;14.63;3.58;;;5.20;99.90;;;;;;5045957;28;20033;-84
2022/02/11 06:54:07;;;;;;;12.02;2.30;;;5.20;99.90;;;;;;5004688;28;20029;-87
2022/02/11 06:56:33;;;;;;;13.60;2.92;;;5.20;99.90;;;;;;5036821;28;20021;-85
2022/02/11 06:58:58;;;;;;;16.98;2.53;;;5.20;99.90;;;;;;5036814;28;20032;-85
2022/02/11 07:01:24;;;;;;;15.93;2.45;;;5.20;99.90;;;;;;5003474;28;20029;-85
2022/02/11 07:03:50;;;;;;;13.30;2.15;;;5.20;99.90;;;;;;5037034;28;20027;-85
2022/02/11 07:06:16;;;;;;;13.88;2.25;;;5.10;99.90;;;;;;5019056;28;20032;-85
2022/02/11 07:08:42;;;;;;;14.45;3.22;;;5.20;99.90;;;;;;5019331;28;20024;-85
2022/02/11 07:11:09;;;;;;;22.92;3.42;;;5.20;99.90;;;;;;5019560;28;20033;-85
2022/02/11 07:13:35;;;;;;;18.42;3.67;;;5.20;99.90;;;;;;5035556;28;20032;-85
2022/02/11 07:16:01;;;;;;;10.35;2.47;;;5.20;99.90;;;;;;5035708;28;20025;-85
2022/02/11 07:18:27;;;;;;;14.73;3.08;;;5.20;99.90;;;;;;5019056;28;20025;-85
2022/02/11 07:20:54;;;;;;;14.57;3.05;;;5.20;99.90;;;;;;5019242;28;20086;-85
2022/02/11 07:23:20;;;;;;;16.67;2.35;;;5.20;99.90;;;;;;5035510;28;20046;-85
2022/02/11 07:25:46;;;;;;;16.35;2.85;;;5.20;99.90;;;;;;5019153;28;20116;-85
2022/02/11 07:28:11;;;;;;;17.92;2.53;;;5.20;99.90;;;;;;5035302;28;20064;-85
2022/02/11 07:30:37;;;;;;;24.23;3.75;;;5.20;99.90;;;;;;5018971;28;20029;-85
2022/02/11 07:33:03;;;;;;;18.48;2.55;;;5.20;99.90;;;;;;5019256;28;20021;-85
2022/02/11 07:35:29;;;;;;;18.77;3.33;;;5.20;99.90;;;;;;5035299;28;20115;-85
2022/02/11 07:37:55;;;;;;;14.50;2.92;;;5.20;99.90;;;;;;5047588;28;20484;-87
2022/02/11 07:40:22;;;;;;;13.98;2.40;;;5.20;99.90;;;;;;5046742;28;20086;-85
2022/02/11 07:42:51;;;;;;;16.85;3.65;;;5.20;99.90;;;;;;5060590;28;20070;-84
2022/02/11 07:45:19;;;;;;;9.40;2.17;;;5.20;99.90;;;;;;5048978;28;20048;-85
2022/02/11 07:47:44;;;;;;;14.18;3.38;;;5.20;99.90;;;;;;5046422;28;20027;-87
2022/02/11 07:50:10;;;;;;;21.92;2.75;;;5.20;99.90;;;;;;5034007;28;20032;-86
2022/02/11 07:52:38;;;;;;;16.45;2.40;;;5.20;99.90;;;;;;5053699;28;20016;-86
2022/02/11 07:55:05;;;;;;;14.25;2.70;;;5.20;99.90;;;;;;5053802;28;20017;-85
2022/02/11 07:57:31;;;;;;;26.90;3.85;;;5.20;99.90;;;;;;5037821;28;20099;-86
2022/02/11 07:59:57;;;;;;;13.50;2.63;;;5.20;99.90;;;;;;5024967;28;20032;-85
2022/02/11 08:02:23;;;;;;;14.13;2.95;;;5.20;99.90;;;;;;5031458;28;20473;-85
2022/02/11 08:04:48;;;;;;;27.25;3.92;;;5.20;99.90;;;;;;5056431;28;20187;-85
2022/02/11 08:07:14;;;;;;;20.63;4.07;;;5.20;99.90;;;;;;5053484;28;20425;-87
2022/02/11 08:09:40;;;;;;;37.70;5.47;;;5.30;99.90;;;;;;5033960;28;20021;-85
2022/02/11 08:12:06;;;;;;;22.75;3.95;;;5.30;99.90;;;;;;5038781;28;20370;-84
2022/02/11 08:14:31;;;;;;;17.13;3.63;;;5.30;99.90;;;;;;5036467;28;20056;-85
2022/02/11 08:16:58;;;;;;;11.70;2.22;;;5.30;99.90;;;;;;5043681;28;20123;-85
2022/02/11 08:19:26;;;;;;;13.93;2.58;;;5.30;99.90;;;;;;5039928;28;20108;-86
2022/02/11 08:21:52;;;;;;;17.98;3.20;;;5.40;99.90;;;;;;5024589;28;20032;-85
2022/02/11 08:24:18;;;;;;;22.67;3.47;;;5.40;99.90;;;;;;5046960;28;20465;-86
2022/02/11 08:26:44;;;;;;;16.42;2.88;;;5.40;99.90;;;;;;5072856;28;20469;-86
2022/02/11 08:29:11;;;;;;;16.95;3.10;;;5.50;99.90;;;;;;5055357;28;20206;-85
2022/02/11 08:31:36;;;;;;;19.42;3.22;;;5.50;99.90;;;;;;5055708;28;20774;-85
2022/02/11 08:34:03;;;;;;;17.77;3.08;;;5.50;99.90;;;;;;5056157;28;20024;-86
2022/02/11 08:36:29;;;;;;;15.88;2.80;;;5.50;99.90;;;;;;5039844;28;20040;-86
2022/02/11 08:38:55;;;;;;;29.08;3.63;;;5.60;99.90;;;;;;5039136;28;20397;-86
2022/02/11 08:41:23;;;;;;;16.40;3.10;;;5.60;99.90;;;;;;5055115;28;20071;-86
2022/02/11 08:43:52;;;;;;;19.08;3.30;;;5.60;99.90;;;;;;5054675;28;20049;-87
2022/02/11 08:46:21;;;;;;;14.48;2.95;;;5.60;99.90;;;;;;5054546;28;20358;-85
2022/02/11 08:48:48;;;;;;;22.90;4.25;;;5.60;99.90;;;;;;5045785;28;20377;-86
2022/02/11 08:51:14;;;;;;;19.80;3.10;;;5.60;99.90;;;;;;5043332;28;20475;-86
2022/02/11 08:53:40;;;;;;;25.67;3.10;;;5.70;99.90;;;;;;5032814;28;20120;-86
2022/02/11 08:56:07;;;;;;;22.40;3.15;;;5.70;99.90;;;;;;5048608;28;20113;-85
2022/02/11 08:58:34;;;;;;;18.42;3.17;;;5.70;99.90;;;;;;5060665;28;20012;-85
2022/02/11 09:00:59;;;;;;;18.13;3.33;;;5.80;99.90;;;;;;5042612;28;20346;-87
2022/02/11 09:03:26;;;;;;;17.63;3.42;;;5.80;99.90;;;;;;5038416;28;20032;-85
2022/02/11 09:05:52;;;;;;;24.25;3.47;;;5.80;99.90;;;;;;5052647;28;20087;-86
2022/02/11 09:08:17;;;;;;;21.60;3.60;;;5.90;99.90;;;;;;5058477;28;20033;-85
2022/02/11 09:10:47;;;;;;;27.50;3.33;;;5.90;99.90;;;;;;5057962;28;20116;-86
2022/02/11 09:13:13;;;;;;;16.00;3.13;;;5.90;99.90;;;;;;5057808;28;20123;-85
2022/02/11 09:15:39;;;;;;;20.15;3.85;;;5.90;99.90;;;;;;5057754;28;20024;-86
2022/02/11 09:18:04;;;;;;;20.80;3.05;;;6.00;99.90;;;;;;5075868;28;20033;-86
2022/02/11 09:20:30;;;;;;;22.70;2.97;;;6.10;99.90;;;;;;5041380;28;20469;-86
2022/02/11 09:22:56;;;;;;;20.63;3.45;;;6.10;99.90;;;;;;5041434;28;20059;-86
2022/02/11 09:25:22;;;;;;;19.77;3.63;;;6.20;99.90;;;;;;5057502;28;20032;-90
2022/02/11 09:27:48;;;;;;;19.55;3.22;;;6.20;99.90;;;;;;5058151;28;20116;-87
2022/02/11 09:30:16;;;;;;;21.58;3.75;;;6.20;99.90;;;;;;5058102;28;20068;-87
2022/02/11 09:32:46;;;;;;;25.95;3.65;;;6.20;99.90;;;;;;5048597;28;20047;-86
2022/02/11 09:35:14;;;;;;;25.65;3.22;;;6.20;99.90;;;;;;5057382;28;20048;-86
2022/02/11 09:37:40;;;;;;;23.15;3.25;;;6.20;99.90;;;;;;5060445;28;20461;-87
2022/02/11 09:40:10;;;;;;;21.77;3.53;;;6.30;99.90;;;;;;5035900;28;20408;-89
2022/02/11 09:42:36;;;;;;;21.92;3.20;;;6.30;99.90;;;;;;5037338;28;20069;-87
2022/02/11 09:45:06;;;;;;;22.17;3.22;;;6.40;99.90;;;;;;5037008;28;20049;-85
2022/02/11 09:47:32;;;;;;;15.48;3.00;;;6.40;99.90;;;;;;5037211;28;20056;-85
2022/02/11 09:49:58;;;;;;;15.63;4.32;;;6.50;99.90;;;;;;5042553;28;20052;-85
2022/02/11 09:52:24;;;;;;;18.95;3.33;;;6.50;99.90;;;;;;5039114;28;20064;-87
2022/02/11 09:55:31;;;;;;;19.80;3.15;;;6.60;99.90;;;;;;5045437;28;20432;-86
2022/02/11 09:57:41;;;;;;;22.75;3.42;;;6.60;99.90;;;;;;5039692;28;20037;-86
2022/02/11 10:00:08;;;;;;;16.92;3.35;;;6.70;99.90;;;;;;5054886;28;20083;-85
2022/02/11 10:02:34;;;;;;;17.70;2.40;;;6.60;99.90;;;;;;5004697;28;20051;-86
2022/02/11 10:05:05;;;;;;;14.45;2.78;;;6.60;99.90;;;;;;5053634;28;20060;-85
2022/02/11 10:07:31;;;;;;;12.52;2.22;;;6.70;99.90;;;;;;5038384;28;20083;-86
2022/02/11 10:09:59;;;;;;;13.20;2.42;;;6.70;99.90;;;;;;5037759;28;20029;-85
2022/02/11 10:12:25;;;;;;;18.77;2.88;;;6.70;99.90;;;;;;5039998;28;20018;-87
2022/02/11 10:14:50;;;;;;;11.25;2.15;;;6.70;99.90;;;;;;5037627;28;20025;-87
2022/02/11 10:17:19;;;;;;;15.90;2.08;;;6.80;99.90;;;;;;5045906;28;20025;-86
2022/02/11 10:19:50;;;;;;;15.48;2.40;;;6.90;99.90;;;;;;5074566;28;20268;-87
2022/02/11 10:22:24;;;;;;;11.48;1.88;;;6.90;99.90;;;;;;5059718;28;20088;-87
2022/02/11 10:24:50;;;;;;;9.90;2.15;;;7.00;99.90;;;;;;5077954;28;20025;-87
2022/02/11 10:27:26;;;;;;;19.70;2.28;;;7.10;99.90;;;;;;5058983;28;20128;-87
2022/02/11 10:29:58;;;;;;;13.93;2.33;;;7.10;99.90;;;;;;5058983;28;20595;-87
2022/02/11 10:32:46;;;;;;;13.15;2.10;;;7.20;99.90;;;;;;5073063;28;20135;-88
2022/02/11 10:35:14;;;;;;;16.98;2.83;;;7.20;99.90;;;;;;5068236;28;20027;-87
2022/02/11 10:38:11;;;;;;;19.83;2.47;;;7.30;99.90;;;;;;5024701;28;20110;-87
2022/02/11 10:40:41;;;;;;;9.98;1.98;;;7.40;99.90;;;;;;5064998;28;20063;-88
2022/02/11 10:43:29;;;;;;;16.50;2.47;;;7.40;99.90;;;;;;5038140;28;20024;-87
2022/02/11 10:46:01;;;;;;;16.38;2.50;;;7.50;99.90;;;;;;5035018;28;20037;-88
2022/02/11 10:48:33;;;;;;;20.90;2.85;;;7.60;99.90;;;;;;5047966;28;20017;-89
2022/02/11 10:51:01;;;;;;;14.90;2.35;;;7.60;99.90;;;;;;5049323;28;20031;-88
2022/02/11 10:53:29;;;;;;;8.40;1.75;;;7.70;99.90;;;;;;5040590;28;20070;-88
2022/02/11 10:55:55;;;;;;;11.30;2.90;;;7.80;99.90;;;;;;5047565;28;20032;-88
2022/02/11 10:58:23;;;;;;;9.95;2.70;;;7.90;99.90;;;;;;5032006;28;20117;-87
2022/02/11 11:00:49;;;;;;;13.57;2.70;;;7.90;99.90;;;;;;5035864;28;20040;-89
2022/02/11 11:03:15;;;;;;;13.00;2.20;;;8.00;99.90;;;;;;5059547;28;20020;-89
2022/02/11 11:05:43;;;;;;;12.40;2.42;;;8.10;99.90;;;;;;5028981;28;20031;-87
2022/02/11 11:08:10;;;;;;;10.15;2.35;;;8.10;99.90;;;;;;5046947;28;20025;-87
2022/02/11 11:10:43;;;;;;;11.57;2.10;;;8.20;99.90;;;;;;5048672;28;20025;-88
2022/02/11 11:13:14;;;;;;;13.13;2.58;;;8.30;99.90;;;;;;5034707;28;20036;-88
2022/02/11 11:15:47;;;;;;;14.43;2.58;;;8.30;99.90;;;;;;5064474;28;20036;-87
2022/02/11 11:18:18;;;;;;;15.15;2.30;;;8.40;99.90;;;;;;5033348;28;20021;-88
2022/02/11 11:20:46;;;;;;;9.60;2.00;;;8.50;99.90;;;;;;5066434;28;20052;-87
2022/02/11 11:23:24;;;;;;;10.75;2.05;;;8.60;99.90;;;;;;5048094;28;20067;-88
2022/02/11 11:26:02;;;;;;;11.50;1.98;;;8.60;99.90;;;;;;5051524;28;20457;-88
2022/02/11 11:28:38;;;;;;;10.98;2.53;;;8.80;99.90;;;;;;5061711;28;20043;-87
2022/02/11 11:31:12;;;;;;;7.32;1.75;;;8.90;99.90;;;;;;5047763;28;20039;-87
2022/02/11 11:33:38;;;;;;;11.25;1.95;;;9.00;99.90;;;;;;5037943;28;20029;-86
2022/02/11 11:36:11;;;;;;;6.57;1.70;;;9.10;99.90;;;;;;5049972;28;20013;-86
2022/02/11 11:38:58;;;;;;;14.13;2.92;;;9.10;99.90;;;;;;5055623;28;20062;-87
2022/02/11 11:41:29;;;;;;;10.35;2.88;;;9.10;99.90;;;;;;5073076;28;20354;-88
2022/02/11 11:43:57;;;;;;;11.52;1.88;;;9.10;99.90;;;;;;5055365;28;20404;-87
2022/02/11 11:46:26;;;;;;;13.23;2.40;;;9.20;99.90;;;;;;5055593;28;20017;-87
2022/02/11 11:49:01;;;;;;;11.88;2.40;;;9.20;99.90;;;;;;5050620;28;20025;-87
2022/02/11 11:51:49;;;;;;;12.23;2.22;;;9.20;99.10;;;;;;5036087;28;20033;-86
2022/02/11 11:54:17;;;;;;;5.72;1.58;;;9.20;99.40;;;;;;5057318;28;20029;-87
2022/02/11 11:56:47;;;;;;;10.93;2.53;;;9.20;98.70;;;;;;5045849;28;20055;-88
2022/02/11 11:59:16;;;;;;;7.95;1.88;;;9.30;99.30;;;;;;5035796;28;20032;-87
2022/02/11 12:02:07;;;;;;;15.13;2.55;;;9.40;99.10;;;;;;5057867;28;20033;-87
2022/02/11 12:04:33;;;;;;;9.60;1.85;;;9.50;98.40;;;;;;5038088;28;20025;-88
2022/02/11 12:07:09;;;;;;;10.30;2.00;;;9.60;97.70;;;;;;5035384;28;20039;-88
2022/02/11 12:09:35;;;;;;;9.43;1.73;;;9.70;96.60;;;;;;5034886;28;20025;-88
2022/02/11 12:12:04;;;;;;;6.07;1.80;;;9.70;96.90;;;;;;5034960;28;20446;-88
2022/02/11 12:14:32;;;;;;;8.13;1.70;;;9.90;97.40;;;;;;5051100;28;20028;-87
2022/02/11 12:17:03;;;;;;;8.00;1.98;;;10.00;97.40;;;;;;5054987;28;20029;-87
2022/02/11 12:19:29;;;;;;;;;;;10.10;96.70;;;;;;5055078;28;20012;-87
2022/02/11 12:21:56;;;;;;;14.15;1.60;;;10.20;95.20;;;;;;5055037;28;19905;-86
2022/02/11 12:27:20;;;;;;;12.82;2.03;;;10.20;93.70;;;;;;5024108;28;20033;-86
2022/02/11 12:30:07;;;;;;;11.68;2.00;;;10.20;94.20;;;;;;5005445;28;20029;-87
2022/02/11 12:32:42;;;;;;;11.88;2.05;;;10.20;93.60;;;;;;5034899;28;20112;-86
2022/02/11 12:35:21;;;;;;;12.55;1.92;;;10.20;94.00;;;;;;5037090;28;20465;-87
2022/02/11 12:37:47;;;;;;;15.73;2.88;;;10.30;94.20;;;;;;5048313;28;20017;-87
2022/02/11 12:40:23;;;;;;;9.77;2.00;;;10.40;94.00;;;;;;5058573;28;20320;-87
2022/02/11 12:42:58;;;;;;;8.85;2.33;;;10.40;94.00;;;;;;5075871;28;20028;-85
2022/02/11 12:45:32;;;;;;;10.63;1.70;;;10.50;92.60;;;;;;5058156;28;20044;-85
2022/02/11 12:47:59;;;;;;;7.57;1.85;;;10.50;91.10;;;;;;5058340;28;20628;-85
2022/02/11 12:50:36;;;;;;;11.45;1.50;;;10.50;92.20;;;;;;5058297;28;20127;-87
2022/02/11 12:53:09;;;;;;;10.32;1.48;;;10.40;90.20;;;;;;5042682;28;20028;-88
2022/02/11 12:55:37;;;;;;;6.10;1.40;;;10.40;89.40;;;;;;5058432;28;20020;-87
2022/02/11 12:58:08;;;;;;;9.50;1.70;;;10.40;89.40;;;;;;5041743;28;20037;-87
2022/02/11 13:00:39;;;;;;;8.65;1.77;;;10.50;89.50;;;;;;5058419;28;20111;-87
2022/02/11 13:03:07;;;;;;;4.55;1.52;;;10.50;89.50;;;;;;5058466;28;20016;-86
2022/02/11 13:05:42;;;;;;;11.30;2.15;;;10.60;90.00;;;;;;5056819;28;20029;-87
2022/02/11 13:08:08;;;;;;;10.05;2.17;;;10.70;89.60;;;;;;5051109;28;20015;-87
2022/02/11 13:10:39;;;;;;;8.27;1.80;;;10.80;84.30;;;;;;5046104;28;20037;-87
2022/02/11 13:13:17;;;;;;;7.32;1.40;;;10.80;85.70;;;;;;5055225;28;20017;-86
2022/02/11 13:15:45;;;;;;;9.55;1.90;;;10.80;84.20;;;;;;5038711;28;20033;-86
2022/02/11 13:18:17;;;;;;;8.18;1.50;;;10.70;83.70;;;;;;5038541;28;20104;-86
2022/02/11 13:20:45;;;;;;;6.80;1.67;;;10.70;82.20;;;;;;5038577;28;20047;-86
2022/02/11 13:23:13;;;;;;;8.95;1.48;;;10.70;81.20;;;;;;5038181;28;20036;-85
2022/02/11 13:25:42;;;;;;;8.27;1.42;;;10.70;82.10;;;;;;5037935;28;20021;-86
2022/02/11 13:28:12;;;;;;;7.70;1.48;;;10.70;82.00;;;;;;5055584;28;20017;-85
2022/02/11 13:30:43;;;;;;;6.75;1.42;;;10.70;82.10;;;;;;5037588;28;20032;-86
2022/02/11 13:33:20;;;;;;;12.70;1.40;;;10.60;80.40;;;;;;5055868;28;20028;-85
2022/02/11 13:35:46;;;;;;;9.20;1.70;;;10.60;79.60;;;;;;5037682;28;20478;-86
2022/02/11 13:38:19;;;;;;;8.70;1.70;;;10.50;78.90;;;;;;5021263;28;20063;-85
2022/02/11 13:40:52;;;;;;;7.38;1.50;;;10.50;78.00;;;;;;5037725;28;20029;-85
2022/02/11 13:43:18;;;;;;;11.27;1.90;;;10.40;75.60;;;;;;5037686;28;20025;-85
2022/02/11 13:45:53;;;;;;;6.05;1.38;;;10.40;77.60;;;;;;5036218;28;20175;-87
2022/02/11 13:48:20;;;;;;;7.30;1.65;;;10.40;77.40;;;;;;5034955;28;20014;-86
2022/02/11 13:51:00;;;;;;;8.15;1.40;;;10.30;78.50;;;;;;5035216;28;20052;-86
2022/02/11 13:53:28;;;;;;;11.20;1.70;;;10.40;78.50;;;;;;5017987;28;20478;-86
2022/02/11 13:55:54;;;;;;;5.47;1.55;;;10.40;78.60;;;;;;5017727;28;20112;-86
2022/02/11 13:58:19;;;;;;;7.05;1.30;;;10.50;78.10;;;;;;5005005;28;20072;-85
2022/02/11 14:00:45;;;;;;;6.90;1.42;;;10.50;78.00;;;;;;5022562;28;20026;-93
2022/02/11 14:03:25;;;;;;;6.90;1.52;;;10.50;80.00;;;;;;5039158;28;20028;-87
2022/02/11 14:05:55;;;;;;;9.15;1.70;;;10.50;79.10;;;;;;5039902;28;20054;-87
2022/02/11 14:08:23;;;;;;;8.82;1.52;;;10.50;78.40;;;;;;5054278;28;20093;-87
2022/02/11 14:11:07;;;;;;;7.45;1.48;;;10.40;80.00;;;;;;5049883;28;20057;-86
2022/02/11 14:13:33;;;;;;;9.93;1.50;;;10.40;79.40;;;;;;5051368;28;20025;-87
2022/02/11 14:15:59;;;;;;;11.07;1.58;;;10.40;79.90;;;;;;5027167;28;20512;-87
2022/02/11 14:18:24;;;;;;;9.32;1.48;;;10.40;80.30;;;;;;5049939;28;20032;-86
2022/02/11 14:20:53;;;;;;;8.25;1.48;;;10.40;79.50;;;;;;5036680;28;20101;-86
2022/02/11 14:23:23;;;;;;;15.63;1.58;;;10.30;80.90;;;;;;5031949;28;20024;-86
2022/02/11 14:25:49;;;;;;;9.50;1.55;;;10.40;80.80;;;;;;5034108;28;20037;-87
2022/02/11 14:28:17;;;;;;;9.85;1.40;;;10.40;80.50;;;;;;5049358;28;20020;-87
2022/02/11 14:30:45;;;;;;;6.38;1.60;;;10.30;80.80;;;;;;5028618;28;20105;-87
2022/02/11 14:33:12;;;;;;;11.68;1.63;;;10.40;80.20;;;;;;5029384;28;20485;-87
2022/02/11 14:35:38;;;;;;;8.13;2.17;;;10.30;79.70;;;;;;5034903;28;20039;-84
2022/02/11 14:38:05;;;;;;;14.88;2.08;;;10.40;79.70;;;;;;5032443;28;20063;-85
2022/02/11 14:40:34;;;;;;;7.35;1.45;;;10.40;79.80;;;;;;5033566;28;20033;-85
2022/02/11 14:43:04;;;;;;;7.90;1.60;;;10.40;79.90;;;;;;5019842;28;20029;-84
2022/02/11 14:45:30;;;;;;;8.88;2.20;;;10.40;79.10;;;;;;5053187;28;20049;-84
2022/02/11 14:47:56;;;;;;;6.97;1.77;;;10.40;81.30;;;;;;5056066;28;20025;-85
2022/02/11 14:50:22;;;;;;;9.27;1.90;;;10.40;80.60;;;;;;5056371;28;20047;-86
2022/02/11 14:52:49;;;;;;;9.90;2.03;;;10.40;81.00;;;;;;5056359;28;20035;-86
2022/02/11 14:55:15;;;;;;;11.38;2.42;;;10.30;81.00;;;;;;5053472;28;20025;-86
2022/02/11 14:57:40;;;;;;;11.07;2.13;;;10.30;80.70;;;;;;5056216;28;20039;-85
2022/02/11 15:00:06;;;;;;;9.57;1.63;;;10.30;80.60;;;;;;5039970;28;20373;-85
2022/02/11 15:02:33;;;;;;;9.93;1.88;;;10.30;82.60;;;;;;5022748;28;20021;-84
2022/02/11 15:04:59;;;;;;;12.57;1.80;;;10.30;81.20;;;;;;5022520;28;20029;-83
2022/02/11 15:07:25;;;;;;;9.40;2.28;;;10.30;81.00;;;;;;5039787;28;20028;-85
2022/02/11 15:09:51;;;;;;;12.15;1.70;;;10.30;80.50;;;;;;5039518;28;20031;-85
2022/02/11 15:12:16;;;;;;;9.48;2.38;;;10.30;81.50;;;;;;5057095;28;20036;-85
2022/02/11 15:14:42;;;;;;;13.23;2.08;;;10.30;82.90;;;;;;5038898;28;20388;-85
2022/02/11 15:17:08;;;;;;;12.02;1.65;;;10.30;83.70;;;;;;5055585;28;20035;-87
2022/02/11 15:19:34;;;;;;;6.88;1.55;;;10.30;83.60;;;;;;5039266;28;20025;-86
2022/02/11 15:22:00;;;;;;;6.22;1.40;;;10.30;84.20;;;;;;5039155;28;20032;-86
2022/02/11 15:24:26;;;;;;;10.63;2.03;;;10.30;84.30;;;;;;5022386;28;20081;-85
2022/02/11 15:26:52;;;;;;;12.63;1.83;;;10.30;83.50;;;;;;5022914;28;20459;-85
2022/02/11 15:29:17;;;;;;;10.25;1.70;;;10.30;83.20;;;;;;5056134;28;20087;-85
2022/02/11 15:31:44;;;;;;;10.35;1.98;;;10.20;83.90;;;;;;5022703;28;20032;-85
2022/02/11 15:34:10;;;;;;;11.57;2.28;;;10.20;84.60;;;;;;5055731;28;20029;-83
2022/02/11 15:36:37;;;;;;;11.35;3.00;;;10.20;84.60;;;;;;5055257;28;20123;-83
2022/02/11 15:39:03;;;;;;;10.02;1.95;;;10.20;82.70;;;;;;5055098;28;20021;-82
2022/02/11 15:41:29;;;;;;;10.88;2.20;;;10.20;83.30;;;;;;5073661;28;20032;-87
2022/02/11 15:43:55;;;;;;;8.05;1.40;;;10.20;83.20;;;;;;5055726;28;20159;-90
2022/02/11 15:46:23;;;;;;;7.38;2.20;;;10.10;83.00;;;;;;5022625;28;20124;-91
2022/02/11 15:48:49;;;;;;;10.07;1.73;;;10.10;83.30;;;;;;5054901;28;20031;-87
2022/02/11 15:51:16;;;;;;;9.55;1.73;;;10.10;82.50;;;;;;5056521;28;20741;-87
2022/02/11 15:53:42;;;;;;;11.80;1.70;;;10.10;83.70;;;;;;5051810;28;20025;-86
2022/02/11 15:56:08;;;;;;;9.23;2.25;;;10.10;84.60;;;;;;5056179;28;20120;-91
2022/02/11 15:58:34;;;;;;;11.38;2.47;;;10.10;86.00;;;;;;5039466;28;20021;-85
2022/02/11 16:01:00;;;;;;;13.45;1.70;;;10.10;85.90;;;;;;5022444;28;20037;-90
2022/02/11 16:03:26;;;;;;;11.32;1.73;;;10.10;84.60;;;;;;5035796;28;20492;-88
2022/02/11 16:05:55;;;;;;;11.23;1.70;;;10.00;85.40;;;;;;5055362;28;20029;-88
2022/02/11 16:08:21;;;;;;;9.25;1.90;;;10.00;86.60;;;;;;5061765;28;20053;-87
2022/02/11 16:10:47;;;;;;;14.88;2.45;;;10.00;86.90;;;;;;5053260;28;20537;-88
2022/02/11 16:13:13;;;;;;;11.88;1.70;;;10.00;87.30;;;;;;5044805;28;20112;-89
2022/02/11 16:15:39;;;;;;;11.80;2.17;;;10.00;87.60;;;;;;5040468;28;20470;-88
2022/02/11 16:18:04;;;;;;;13.75;2.10;;;10.00;88.40;;;;;;5059632;28;20024;-87
2022/02/11 16:20:39;;;;;;;10.82;2.92;;;10.00;89.00;;;;;;5059254;28;20029;-88
2022/02/11 16:23:07;;;;;;;13.63;1.90;;;10.00;89.80;;;;;;5046149;28;20025;-87
2022/02/11 16:25:35;;;;;;;15.95;1.77;;;9.90;89.70;;;;;;5059638;28;20029;-86
2022/02/11 16:28:05;;;;;;;15.70;2.00;;;9.90;89.70;;;;;;5058678;28;20047;-87
2022/02/11 16:30:32;;;;;;;12.25;1.90;;;9.90;88.50;;;;;;5057718;28;20055;-86
2022/02/11 16:32:59;;;;;;;15.60;2.08;;;9.90;89.40;;;;;;5059012;28;20027;-87